Windsor Heights, West Virginia
Current Conditions -  °F | °C
As of 12:53 PM on Monday 22 Dec 2014 (Local Time) from KHLG Reporting Station
Clear Clear  
Wind Chill: 44°   Ceiling: Unl
Heat Index: 48°   Visibility: 10mi
Dew Point: 32°   Wind: 8mph
Humidity: 54%   Direction: 120°ESE
Pressure: 30.01"   Gusts: NA
Location:  40.19°N, 80.67°W
Report Text: KHLG 221753Z 12007KT 10SM CLR 09/00 A3001 RMK AO2 SLP172 T00890000 10089 21022 58025
Loading
Personal Weather Stations






























Interactive Weather Map New forecast layout! Learn more

10-Day Weather Forecast

Advertisements
Track Severe Weather on mobile